sensor_id;sensor_type;location;lat;lon;timestamp;P1;durP1;ratioP1;P2;durP2;ratioP2
11539;SDS011;5826;54.756;9.192;2023-04-01T00:00:49;6.78;;;4.88;;
11539;SDS011;5826;54.756;9.192;2023-04-01T00:03:15;5.35;;;4.32;;
11539;SDS011;5826;54.756;9.192;2023-04-01T00:05:41;5.70;;;4.28;;
11539;SDS011;5826;54.756;9.192;2023-04-01T00:08:06;6.72;;;4.43;;
11539;SDS011;5826;54.756;9.192;2023-04-01T00:10:32;5.22;;;3.80;;
11539;SDS011;5826;54.756;9.192;2023-04-01T00:12:57;5.70;;;4.18;;
11539;SDS011;5826;54.756;9.192;2023-04-01T00:15:23;4.15;;;3.40;;
11539;SDS011;5826;54.756;9.192;2023-04-01T00:17:48;4.20;;;2.95;;
11539;SDS011;5826;54.756;9.192;2023-04-01T00:20:14;2.90;;;2.60;;
11539;SDS011;5826;54.756;9.192;2023-04-01T00:22:40;2.97;;;2.40;;
11539;SDS011;5826;54.756;9.192;2023-04-01T00:25:06;3.38;;;2.40;;
11539;SDS011;5826;54.756;9.192;2023-04-01T00:27:31;2.78;;;2.03;;
11539;SDS011;5826;54.756;9.192;2023-04-01T00:29:57;2.50;;;1.90;;
11539;SDS011;5826;54.756;9.192;2023-04-01T00:32:23;2.17;;;1.90;;
11539;SDS011;5826;54.756;9.192;2023-04-01T00:34:51;2.38;;;2.03;;
11539;SDS011;5826;54.756;9.192;2023-04-01T00:37:18;1.95;;;1.58;;
11539;SDS011;5826;54.756;9.192;2023-04-01T00:39:44;2.42;;;1.70;;
11539;SDS011;5826;54.756;9.192;2023-04-01T00:42:10;1.83;;;1.60;;
11539;SDS011;5826;54.756;9.192;2023-04-01T00:44:37;2.35;;;1.60;;
11539;SDS011;5826;54.756;9.192;2023-04-01T00:47:03;2.85;;;1.70;;
11539;SDS011;5826;54.756;9.192;2023-04-01T00:49:30;2.00;;;1.80;;
11539;SDS011;5826;54.756;9.192;2023-04-01T00:52:00;2.10;;;1.80;;
11539;SDS011;5826;54.756;9.192;2023-04-01T00:54:28;1.80;;;1.70;;
11539;SDS011;5826;54.756;9.192;2023-04-01T00:59:26;2.17;;;1.75;;
11539;SDS011;5826;54.756;9.192;2023-04-01T01:01:58;2.00;;;1.80;;
11539;SDS011;5826;54.756;9.192;2023-04-01T01:07:02;2.20;;;1.80;;
11539;SDS011;5826;54.756;9.192;2023-04-01T01:12:18;1.95;;;1.63;;
11539;SDS011;5826;54.756;9.192;2023-04-01T01:32:24;1.30;;;1.20;;
11539;SDS011;5826;54.756;9.192;2023-04-01T01:37:53;1.75;;;1.10;;
11539;SDS011;5826;54.756;9.192;2023-04-01T01:40:23;1.00;;;0.90;;
11539;SDS011;5826;54.756;9.192;2023-04-01T01:42:52;1.70;;;1.20;;
11539;SDS011;5826;54.756;9.192;2023-04-01T01:45:21;1.05;;;0.95;;
11539;SDS011;5826;54.756;9.192;2023-04-01T01:47:49;1.00;;;0.90;;
11539;SDS011;5826;54.756;9.192;2023-04-01T01:50:17;0.85;;;0.70;;
11539;SDS011;5826;54.756;9.192;2023-04-01T01:52:43;1.48;;;0.80;;
11539;SDS011;5826;54.756;9.192;2023-04-01T01:55:30;1.45;;;0.88;;
11539;SDS011;5826;54.756;9.192;2023-04-01T01:58:11;1.50;;;1.00;;
11539;SDS011;5826;54.756;9.192;2023-04-01T02:00:50;0.93;;;0.80;;
11539;SDS011;5826;54.756;9.192;2023-04-01T02:03:21;1.20;;;0.93;;
11539;SDS011;5826;54.756;9.192;2023-04-01T02:05:50;1.00;;;0.90;;
11539;SDS011;5826;54.756;9.192;2023-04-01T02:08:19;1.10;;;0.80;;
11539;SDS011;5826;54.756;9.192;2023-04-01T02:10:53;0.93;;;0.60;;
11539;SDS011;5826;54.756;9.192;2023-04-01T02:13:27;0.93;;;0.60;;
11539;SDS011;5826;54.756;9.192;2023-04-01T02:16:29;0.90;;;0.68;;
11539;SDS011;5826;54.756;9.192;2023-04-01T02:18:56;1.08;;;0.73;;
11539;SDS011;5826;54.756;9.192;2023-04-01T02:21:26;1.15;;;0.60;;
11539;SDS011;5826;54.756;9.192;2023-04-01T02:23:54;0.50;;;0.50;;
11539;SDS011;5826;54.756;9.192;2023-04-01T02:26:22;0.50;;;0.50;;
11539;SDS011;5826;54.756;9.192;2023-04-01T02:28:50;1.02;;;0.50;;
11539;SDS011;5826;54.756;9.192;2023-04-01T02:31:17;0.50;;;0.50;;
11539;SDS011;5826;54.756;9.192;2023-04-01T02:33:43;1.27;;;0.55;;
11539;SDS011;5826;54.756;9.192;2023-04-01T02:36:11;0.50;;;0.50;;
11539;SDS011;5826;54.756;9.192;2023-04-01T02:38:38;0.45;;;0.40;;
11539;SDS011;5826;54.756;9.192;2023-04-01T02:41:04;0.70;;;0.60;;
11539;SDS011;5826;54.756;9.192;2023-04-01T02:43:31;0.65;;;0.45;;
11539;SDS011;5826;54.756;9.192;2023-04-01T02:45:57;1.43;;;0.50;;
11539;SDS011;5826;54.756;9.192;2023-04-01T02:48:22;0.93;;;0.40;;
11539;SDS011;5826;54.756;9.192;2023-04-01T02:50:48;0.60;;;0.50;;
11539;SDS011;5826;54.756;9.192;2023-04-01T02:53:14;1.47;;;0.57;;
11539;SDS011;5826;54.756;9.192;2023-04-01T02:55:40;0.80;;;0.40;;
11539;SDS011;5826;54.756;9.192;2023-04-01T02:58:06;0.53;;;0.40;;
11539;SDS011;5826;54.756;9.192;2023-04-01T03:00:31;0.40;;;0.30;;
11539;SDS011;5826;54.756;9.192;2023-04-01T03:02:57;0.30;;;0.30;;
11539;SDS011;5826;54.756;9.192;2023-04-01T03:05:22;0.90;;;0.50;;
11539;SDS011;5826;54.756;9.192;2023-04-01T03:07:48;0.50;;;0.40;;
11539;SDS011;5826;54.756;9.192;2023-04-01T03:10:14;0.70;;;0.50;;
11539;SDS011;5826;54.756;9.192;2023-04-01T03:12:40;0.50;;;0.40;;
11539;SDS011;5826;54.756;9.192;2023-04-01T03:15:06;0.70;;;0.40;;
11539;SDS011;5826;54.756;9.192;2023-04-01T03:17:32;0.70;;;0.50;;
11539;SDS011;5826;54.756;9.192;2023-04-01T03:19:57;1.07;;;0.40;;
11539;SDS011;5826;54.756;9.192;2023-04-01T03:22:22;0.53;;;0.40;;
11539;SDS011;5826;54.756;9.192;2023-04-01T03:24:48;0.97;;;0.37;;
11539;SDS011;5826;54.756;9.192;2023-04-01T03:27:14;1.33;;;0.50;;
11539;SDS011;5826;54.756;9.192;2023-04-01T03:29:40;1.37;;;0.40;;
11539;SDS011;5826;54.756;9.192;2023-04-01T03:32:05;0.33;;;0.33;;
11539;SDS011;5826;54.756;9.192;2023-04-01T03:34:31;1.27;;;0.60;;
11539;SDS011;5826;54.756;9.192;2023-04-01T03:36:56;1.00;;;0.50;;
11539;SDS011;5826;54.756;9.192;2023-04-01T03:39:22;0.60;;;0.50;;
11539;SDS011;5826;54.756;9.192;2023-04-01T03:41:47;0.73;;;0.50;;
11539;SDS011;5826;54.756;9.192;2023-04-01T03:44:13;0.53;;;0.37;;
11539;SDS011;5826;54.756;9.192;2023-04-01T03:46:39;0.73;;;0.50;;
11539;SDS011;5826;54.756;9.192;2023-04-01T03:49:09;1.20;;;0.50;;
11539;SDS011;5826;54.756;9.192;2023-04-01T03:51:38;0.70;;;0.50;;
11539;SDS011;5826;54.756;9.192;2023-04-01T03:54:07;0.63;;;0.60;;
11539;SDS011;5826;54.756;9.192;2023-04-01T03:56:33;0.57;;;0.50;;
11539;SDS011;5826;54.756;9.192;2023-04-01T03:59:01;1.20;;;0.60;;
11539;SDS011;5826;54.756;9.192;2023-04-01T04:01:28;0.77;;;0.60;;
11539;SDS011;5826;54.756;9.192;2023-04-01T04:03:54;1.50;;;0.70;;
11539;SDS011;5826;54.756;9.192;2023-04-01T04:06:21;0.63;;;0.60;;
11539;SDS011;5826;54.756;9.192;2023-04-01T04:08:47;0.90;;;0.80;;
11539;SDS011;5826;54.756;9.192;2023-04-01T04:11:12;1.17;;;0.77;;
11539;SDS011;5826;54.756;9.192;2023-04-01T04:13:38;1.20;;;1.00;;
11539;SDS011;5826;54.756;9.192;2023-04-01T04:16:04;2.57;;;0.90;;
11539;SDS011;5826;54.756;9.192;2023-04-01T04:18:29;2.10;;;0.83;;
11539;SDS011;5826;54.756;9.192;2023-04-01T04:20:55;2.37;;;1.00;;
11539;SDS011;5826;54.756;9.192;2023-04-01T04:23:21;1.20;;;0.77;;
11539;SDS011;5826;54.756;9.192;2023-04-01T04:25:53;1.93;;;0.90;;
11539;SDS011;5826;54.756;9.192;2023-04-01T04:28:20;1.43;;;0.93;;
11539;SDS011;5826;54.756;9.192;2023-04-01T04:30:45;1.00;;;0.90;;
11539;SDS011;5826;54.756;9.192;2023-04-01T04:33:11;1.33;;;1.00;;
11539;SDS011;5826;54.756;9.192;2023-04-01T04:35:37;1.83;;;1.00;;
11539;SDS011;5826;54.756;9.192;2023-04-01T04:38:02;2.60;;;1.20;;
11539;SDS011;5826;54.756;9.192;2023-04-01T04:40:28;1.53;;;1.30;;
11539;SDS011;5826;54.756;9.192;2023-04-01T04:42:53;2.33;;;1.27;;
11539;SDS011;5826;54.756;9.192;2023-04-01T04:45:19;2.07;;;1.17;;
11539;SDS011;5826;54.756;9.192;2023-04-01T04:47:44;1.30;;;1.10;;
11539;SDS011;5826;54.756;9.192;2023-04-01T04:50:10;3.83;;;1.33;;
11539;SDS011;5826;54.756;9.192;2023-04-01T04:52:36;1.47;;;0.90;;
11539;SDS011;5826;54.756;9.192;2023-04-01T04:55:02;1.67;;;0.97;;
11539;SDS011;5826;54.756;9.192;2023-04-01T04:57:27;2.30;;;1.13;;
11539;SDS011;5826;54.756;9.192;2023-04-01T04:59:53;1.40;;;1.10;;
11539;SDS011;5826;54.756;9.192;2023-04-01T05:02:18;1.20;;;0.93;;
11539;SDS011;5826;54.756;9.192;2023-04-01T05:04:44;1.33;;;0.83;;
11539;SDS011;5826;54.756;9.192;2023-04-01T05:07:10;1.27;;;0.97;;
11539;SDS011;5826;54.756;9.192;2023-04-01T05:09:35;1.43;;;0.90;;
11539;SDS011;5826;54.756;9.192;2023-04-01T05:12:01;1.00;;;0.70;;
11539;SDS011;5826;54.756;9.192;2023-04-01T05:14:27;1.00;;;0.90;;
11539;SDS011;5826;54.756;9.192;2023-04-01T05:16:52;1.33;;;0.93;;
11539;SDS011;5826;54.756;9.192;2023-04-01T05:19:19;2.40;;;1.10;;
11539;SDS011;5826;54.756;9.192;2023-04-01T05:21:44;1.00;;;0.90;;
11539;SDS011;5826;54.756;9.192;2023-04-01T05:24:10;2.23;;;1.00;;
11539;SDS011;5826;54.756;9.192;2023-04-01T05:26:36;1.10;;;0.73;;
11539;SDS011;5826;54.756;9.192;2023-04-01T05:29:02;2.50;;;1.00;;
11539;SDS011;5826;54.756;9.192;2023-04-01T05:31:28;0.80;;;0.80;;
11539;SDS011;5826;54.756;9.192;2023-04-01T05:33:54;1.03;;;0.90;;
11539;SDS011;5826;54.756;9.192;2023-04-01T05:36:20;1.43;;;0.90;;
11539;SDS011;5826;54.756;9.192;2023-04-01T05:38:46;1.73;;;0.90;;
11539;SDS011;5826;54.756;9.192;2023-04-01T05:41:12;1.50;;;0.90;;
11539;SDS011;5826;54.756;9.192;2023-04-01T05:43:39;2.17;;;1.00;;
11539;SDS011;5826;54.756;9.192;2023-04-01T05:46:06;1.00;;;0.80;;
11539;SDS011;5826;54.756;9.192;2023-04-01T05:48:32;1.58;;;0.80;;
11539;SDS011;5826;54.756;9.192;2023-04-01T05:50:59;1.47;;;0.70;;
11539;SDS011;5826;54.756;9.192;2023-04-01T05:53:25;1.17;;;0.97;;
11539;SDS011;5826;54.756;9.192;2023-04-01T05:55:51;1.57;;;0.90;;
11539;SDS011;5826;54.756;9.192;2023-04-01T05:58:16;1.20;;;1.00;;
11539;SDS011;5826;54.756;9.192;2023-04-01T06:00:42;2.10;;;1.00;;
11539;SDS011;5826;54.756;9.192;2023-04-01T06:03:07;1.80;;;0.97;;
11539;SDS011;5826;54.756;9.192;2023-04-01T06:05:40;1.10;;;0.90;;
11539;SDS011;5826;54.756;9.192;2023-04-01T06:08:11;0.90;;;0.90;;
11539;SDS011;5826;54.756;9.192;2023-04-01T06:10:58;2.13;;;0.97;;
11539;SDS011;5826;54.756;9.192;2023-04-01T06:13:44;1.33;;;0.87;;
11539;SDS011;5826;54.756;9.192;2023-04-01T06:21:46;1.20;;;0.70;;
11539;SDS011;5826;54.756;9.192;2023-04-01T06:27:36;0.83;;;0.70;;
11539;SDS011;5826;54.756;9.192;2023-04-01T06:33:08;1.10;;;0.80;;
11539;SDS011;5826;54.756;9.192;2023-04-01T06:40:51;1.40;;;0.90;;
11539;SDS011;5826;54.756;9.192;2023-04-01T06:46:02;1.20;;;0.80;;
11539;SDS011;5826;54.756;9.192;2023-04-01T06:49:02;1.67;;;0.97;;
11539;SDS011;5826;54.756;9.192;2023-04-01T06:51:57;1.90;;;0.77;;
11539;SDS011;5826;54.756;9.192;2023-04-01T06:54:37;1.23;;;0.80;;
11539;SDS011;5826;54.756;9.192;2023-04-01T06:57:49;0.90;;;0.70;;
11539;SDS011;5826;54.756;9.192;2023-04-01T06:59:59;1.20;;;0.90;;
11539;SDS011;5826;54.756;9.192;2023-04-01T07:02:34;2.80;;;1.10;;
11539;SDS011;5826;54.756;9.192;2023-04-01T07:05:06;1.07;;;0.80;;
11539;SDS011;5826;54.756;9.192;2023-04-01T07:07:34;1.77;;;0.80;;
11539;SDS011;5826;54.756;9.192;2023-04-01T07:10:11;1.67;;;1.03;;
11539;SDS011;5826;54.756;9.192;2023-04-01T07:12:54;2.17;;;1.10;;
11539;SDS011;5826;54.756;9.192;2023-04-01T07:15:23;0.80;;;0.80;;
11539;SDS011;5826;54.756;9.192;2023-04-01T07:17:55;1.60;;;1.00;;
11539;SDS011;5826;54.756;9.192;2023-04-01T07:20:27;0.90;;;0.80;;
11539;SDS011;5826;54.756;9.192;2023-04-01T07:22:57;2.20;;;0.97;;
11539;SDS011;5826;54.756;9.192;2023-04-01T07:25:29;1.63;;;1.00;;
11539;SDS011;5826;54.756;9.192;2023-04-01T07:28:03;1.83;;;1.00;;
11539;SDS011;5826;54.756;9.192;2023-04-01T07:30:34;1.53;;;1.00;;
11539;SDS011;5826;54.756;9.192;2023-04-01T07:33:16;2.77;;;1.17;;
11539;SDS011;5826;54.756;9.192;2023-04-01T07:36:03;3.47;;;1.20;;
11539;SDS011;5826;54.756;9.192;2023-04-01T07:41:28;2.27;;;1.20;;
11539;SDS011;5826;54.756;9.192;2023-04-01T07:44:02;1.73;;;1.00;;
11539;SDS011;5826;54.756;9.192;2023-04-01T07:49:20;2.80;;;0.90;;
11539;SDS011;5826;54.756;9.192;2023-04-01T07:52:12;1.63;;;1.03;;
11539;SDS011;5826;54.756;9.192;2023-04-01T07:54:42;1.77;;;1.10;;
11539;SDS011;5826;54.756;9.192;2023-04-01T08:00:12;2.63;;;1.10;;
11539;SDS011;5826;54.756;9.192;2023-04-01T08:02:48;1.63;;;1.10;;
11539;SDS011;5826;54.756;9.192;2023-04-01T08:05:36;2.03;;;1.13;;
11539;SDS011;5826;54.756;9.192;2023-04-01T08:08:19;2.60;;;1.00;;
11539;SDS011;5826;54.756;9.192;2023-04-01T08:11:34;1.50;;;1.20;;
11539;SDS011;5826;54.756;9.192;2023-04-01T08:22:29;2.87;;;1.30;;
11539;SDS011;5826;54.756;9.192;2023-04-01T08:25:17;5.97;;;4.43;;
11539;SDS011;5826;54.756;9.192;2023-04-01T08:27:48;10.67;;;8.57;;
11539;SDS011;5826;54.756;9.192;2023-04-01T08:30:23;11.33;;;9.47;;
11539;SDS011;5826;54.756;9.192;2023-04-01T08:33:12;9.90;;;8.90;;
11539;SDS011;5826;54.756;9.192;2023-04-01T08:56:21;4.70;;;3.43;;
11539;SDS011;5826;54.756;9.192;2023-04-01T09:01:51;5.03;;;3.20;;
11539;SDS011;5826;54.756;9.192;2023-04-01T09:04:42;4.20;;;2.63;;
11539;SDS011;5826;54.756;9.192;2023-04-01T09:07:23;4.00;;;2.67;;
11539;SDS011;5826;54.756;9.192;2023-04-01T09:15:30;3.57;;;2.53;;
11539;SDS011;5826;54.756;9.192;2023-04-01T09:18:49;5.60;;;3.37;;
11539;SDS011;5826;54.756;9.192;2023-04-01T09:27:28;4.57;;;2.67;;
11539;SDS011;5826;54.756;9.192;2023-04-01T09:30:23;6.87;;;3.70;;
11539;SDS011;5826;54.756;9.192;2023-04-01T09:36:04;5.13;;;3.47;;
11539;SDS011;5826;54.756;9.192;2023-04-01T09:41:31;5.13;;;3.20;;
11539;SDS011;5826;54.756;9.192;2023-04-01T09:44:01;5.10;;;3.20;;
11539;SDS011;5826;54.756;9.192;2023-04-01T09:49:30;5.07;;;3.50;;
11539;SDS011;5826;54.756;9.192;2023-04-01T09:55:06;7.27;;;3.73;;
11539;SDS011;5826;54.756;9.192;2023-04-01T10:09:23;5.17;;;3.60;;
11539;SDS011;5826;54.756;9.192;2023-04-01T10:17:56;4.63;;;2.93;;
11539;SDS011;5826;54.756;9.192;2023-04-01T10:28:48;5.23;;;3.03;;
11539;SDS011;5826;54.756;9.192;2023-04-01T10:40:20;3.37;;;2.63;;
11539;SDS011;5826;54.756;9.192;2023-04-01T10:48:31;4.37;;;3.17;;
11539;SDS011;5826;54.756;9.192;2023-04-01T10:59:27;3.53;;;2.90;;
11539;SDS011;5826;54.756;9.192;2023-04-01T11:05:26;5.53;;;3.00;;
11539;SDS011;5826;54.756;9.192;2023-04-01T11:22:17;3.10;;;2.40;;
11539;SDS011;5826;54.756;9.192;2023-04-01T11:27:24;3.33;;;2.70;;
11539;SDS011;5826;54.756;9.192;2023-04-01T11:30:27;3.87;;;2.73;;
11539;SDS011;5826;54.756;9.192;2023-04-01T11:33:19;2.97;;;2.50;;
11539;SDS011;5826;54.756;9.192;2023-04-01T11:39:22;3.50;;;2.30;;
11539;SDS011;5826;54.756;9.192;2023-04-01T11:44:35;3.03;;;2.40;;
11539;SDS011;5826;54.756;9.192;2023-04-01T11:50:08;2.93;;;2.27;;
11539;SDS011;5826;54.756;9.192;2023-04-01T11:53:04;3.30;;;2.10;;
11539;SDS011;5826;54.756;9.192;2023-04-01T11:56:11;2.40;;;2.17;;
11539;SDS011;5826;54.756;9.192;2023-04-01T12:01:42;4.03;;;2.23;;
11539;SDS011;5826;54.756;9.192;2023-04-01T12:07:44;2.63;;;2.13;;
11539;SDS011;5826;54.756;9.192;2023-04-01T12:10:33;3.73;;;2.40;;
11539;SDS011;5826;54.756;9.192;2023-04-01T12:19:15;3.20;;;2.40;;
11539;SDS011;5826;54.756;9.192;2023-04-01T12:24:45;3.07;;;2.60;;
11539;SDS011;5826;54.756;9.192;2023-04-01T12:32:46;3.30;;;2.97;;
11539;SDS011;5826;54.756;9.192;2023-04-01T12:35:44;3.53;;;2.47;;
11539;SDS011;5826;54.756;9.192;2023-04-01T12:38:30;4.17;;;2.70;;
11539;SDS011;5826;54.756;9.192;2023-04-01T12:41:17;2.83;;;2.40;;
11539;SDS011;5826;54.756;9.192;2023-04-01T12:52:12;4.07;;;2.60;;
11539;SDS011;5826;54.756;9.192;2023-04-01T12:57:57;4.03;;;2.30;;
11539;SDS011;5826;54.756;9.192;2023-04-01T13:09:11;3.27;;;2.17;;
11539;SDS011;5826;54.756;9.192;2023-04-01T13:12:05;2.97;;;1.73;;
11539;SDS011;5826;54.756;9.192;2023-04-01T13:17:26;3.27;;;2.17;;
11539;SDS011;5826;54.756;9.192;2023-04-01T13:20:18;2.50;;;2.30;;
11539;SDS011;5826;54.756;9.192;2023-04-01T13:23:00;2.77;;;2.07;;
11539;SDS011;5826;54.756;9.192;2023-04-01T13:27:56;2.73;;;2.10;;
11539;SDS011;5826;54.756;9.192;2023-04-01T13:31:01;4.00;;;2.37;;
11539;SDS011;5826;54.756;9.192;2023-04-01T13:33:47;2.90;;;2.00;;
11539;SDS011;5826;54.756;9.192;2023-04-01T13:36:28;3.37;;;2.10;;
11539;SDS011;5826;54.756;9.192;2023-04-01T13:44:22;1.97;;;1.80;;
11539;SDS011;5826;54.756;9.192;2023-04-01T13:47:11;3.63;;;1.80;;
11539;SDS011;5826;54.756;9.192;2023-04-01T13:52:44;2.87;;;1.73;;
11539;SDS011;5826;54.756;9.192;2023-04-01T13:55:21;2.60;;;1.97;;
11539;SDS011;5826;54.756;9.192;2023-04-01T13:58:07;2.23;;;1.50;;
11539;SDS011;5826;54.756;9.192;2023-04-01T14:00:54;3.13;;;1.93;;
11539;SDS011;5826;54.756;9.192;2023-04-01T14:17:37;3.43;;;1.97;;
11539;SDS011;5826;54.756;9.192;2023-04-01T14:20:25;3.00;;;2.00;;
11539;SDS011;5826;54.756;9.192;2023-04-01T14:50:41;2.47;;;1.52;;
11539;SDS011;5826;54.756;9.192;2023-04-01T14:55:54;2.38;;;1.40;;
11539;SDS011;5826;54.756;9.192;2023-04-01T14:58:23;3.15;;;1.90;;
11539;SDS011;5826;54.756;9.192;2023-04-01T15:00:55;2.58;;;1.70;;
11539;SDS011;5826;54.756;9.192;2023-04-01T15:04:04;2.85;;;1.67;;
11539;SDS011;5826;54.756;9.192;2023-04-01T15:18:08;1.90;;;1.30;;
11539;SDS011;5826;54.756;9.192;2023-04-01T15:20:43;2.50;;;1.48;;
11539;SDS011;5826;54.756;9.192;2023-04-01T15:26:18;3.30;;;1.58;;
11539;SDS011;5826;54.756;9.192;2023-04-01T15:34:17;2.15;;;1.25;;
11539;SDS011;5826;54.756;9.192;2023-04-01T15:37:00;1.83;;;1.20;;
11539;SDS011;5826;54.756;9.192;2023-04-01T15:39:53;2.70;;;1.33;;
11539;SDS011;5826;54.756;9.192;2023-04-01T15:49:08;1.85;;;1.10;;
11539;SDS011;5826;54.756;9.192;2023-04-01T15:51:59;2.22;;;1.17;;
11539;SDS011;5826;54.756;9.192;2023-04-01T15:54:49;2.53;;;1.10;;
11539;SDS011;5826;54.756;9.192;2023-04-01T15:57:52;2.45;;;1.10;;
11539;SDS011;5826;54.756;9.192;2023-04-01T16:00:29;1.67;;;0.95;;
11539;SDS011;5826;54.756;9.192;2023-04-01T16:06:17;1.67;;;0.95;;
11539;SDS011;5826;54.756;9.192;2023-04-01T16:09:05;1.00;;;0.90;;
11539;SDS011;5826;54.756;9.192;2023-04-01T16:14:50;1.50;;;1.10;;
11539;SDS011;5826;54.756;9.192;2023-04-01T16:17:52;2.35;;;1.17;;
11539;SDS011;5826;54.756;9.192;2023-04-01T16:26:59;1.52;;;1.10;;
11539;SDS011;5826;54.756;9.192;2023-04-01T16:32:44;1.40;;;0.93;;
11539;SDS011;5826;54.756;9.192;2023-04-01T16:37:54;1.10;;;0.98;;
11539;SDS011;5826;54.756;9.192;2023-04-01T16:40:52;1.30;;;1.13;;
11539;SDS011;5826;54.756;9.192;2023-04-01T16:43:38;1.73;;;1.10;;
11539;SDS011;5826;54.756;9.192;2023-04-01T16:46:31;1.30;;;0.90;;
11539;SDS011;5826;54.756;9.192;2023-04-01T16:54:17;1.75;;;1.00;;
11539;SDS011;5826;54.756;9.192;2023-04-01T16:56:50;2.53;;;1.02;;
11539;SDS011;5826;54.756;9.192;2023-04-01T16:59:38;1.13;;;1.00;;
11539;SDS011;5826;54.756;9.192;2023-04-01T17:02:12;2.42;;;1.15;;
11539;SDS011;5826;54.756;9.192;2023-04-01T17:04:47;1.95;;;1.13;;
11539;SDS011;5826;54.756;9.192;2023-04-01T17:10:35;1.45;;;0.95;;
11539;SDS011;5826;54.756;9.192;2023-04-01T17:13:17;1.73;;;1.10;;
11539;SDS011;5826;54.756;9.192;2023-04-01T17:16:10;2.30;;;1.20;;
11539;SDS011;5826;54.756;9.192;2023-04-01T17:24:31;2.42;;;1.20;;
11539;SDS011;5826;54.756;9.192;2023-04-01T17:27:14;1.55;;;1.05;;
11539;SDS011;5826;54.756;9.192;2023-04-01T17:30:17;1.95;;;1.45;;
11539;SDS011;5826;54.756;9.192;2023-04-01T17:33:04;1.50;;;1.10;;
11539;SDS011;5826;54.756;9.192;2023-04-01T17:41:42;4.00;;;1.23;;
11539;SDS011;5826;54.756;9.192;2023-04-01T17:58:21;3.22;;;1.20;;
11539;SDS011;5826;54.756;9.192;2023-04-01T18:03:36;1.83;;;1.30;;
11539;SDS011;5826;54.756;9.192;2023-04-01T18:06:39;2.13;;;1.27;;
11539;SDS011;5826;54.756;9.192;2023-04-01T18:11:56;2.25;;;1.30;;
11539;SDS011;5826;54.756;9.192;2023-04-01T18:14:41;2.40;;;1.10;;
11539;SDS011;5826;54.756;9.192;2023-04-01T18:17:32;1.27;;;1.15;;
11539;SDS011;5826;54.756;9.192;2023-04-01T18:20:20;2.15;;;1.38;;
11539;SDS011;5826;54.756;9.192;2023-04-01T18:23:19;2.13;;;1.10;;
11539;SDS011;5826;54.756;9.192;2023-04-01T18:26:44;1.98;;;1.30;;
11539;SDS011;5826;54.756;9.192;2023-04-01T18:28:54;3.25;;;1.83;;
11539;SDS011;5826;54.756;9.192;2023-04-01T18:31:47;5.15;;;2.35;;
11539;SDS011;5826;54.756;9.192;2023-04-01T18:37:01;5.18;;;2.92;;
11539;SDS011;5826;54.756;9.192;2023-04-01T18:39:40;4.75;;;2.42;;
11539;SDS011;5826;54.756;9.192;2023-04-01T18:50:37;3.50;;;1.80;;
11539;SDS011;5826;54.756;9.192;2023-04-01T18:53:34;3.33;;;1.50;;
11539;SDS011;5826;54.756;9.192;2023-04-01T18:56:23;2.67;;;1.20;;
11539;SDS011;5826;54.756;9.192;2023-04-01T19:04:42;2.37;;;1.10;;
11539;SDS011;5826;54.756;9.192;2023-04-01T19:10:22;2.03;;;1.33;;
11539;SDS011;5826;54.756;9.192;2023-04-01T19:27:03;3.00;;;1.70;;
11539;SDS011;5826;54.756;9.192;2023-04-01T19:35:35;3.23;;;1.63;;
11539;SDS011;5826;54.756;9.192;2023-04-01T19:38:29;2.43;;;1.53;;
11539;SDS011;5826;54.756;9.192;2023-04-01T19:44:12;3.80;;;1.50;;
11539;SDS011;5826;54.756;9.192;2023-04-01T19:46:53;1.97;;;1.20;;
11539;SDS011;5826;54.756;9.192;2023-04-01T19:52:13;1.57;;;1.27;;
11539;SDS011;5826;54.756;9.192;2023-04-01T19:58:04;3.50;;;1.60;;
11539;SDS011;5826;54.756;9.192;2023-04-01T20:00:37;2.40;;;1.30;;
11539;SDS011;5826;54.756;9.192;2023-04-01T20:06:02;2.77;;;1.50;;
11539;SDS011;5826;54.756;9.192;2023-04-01T20:08:49;2.17;;;1.23;;
11539;SDS011;5826;54.756;9.192;2023-04-01T20:11:30;1.80;;;1.27;;
11539;SDS011;5826;54.756;9.192;2023-04-01T20:17:25;2.97;;;1.53;;
11539;SDS011;5826;54.756;9.192;2023-04-01T20:19:59;2.13;;;1.37;;
11539;SDS011;5826;54.756;9.192;2023-04-01T20:25:16;3.17;;;1.40;;
11539;SDS011;5826;54.756;9.192;2023-04-01T20:27:58;3.53;;;1.60;;
11539;SDS011;5826;54.756;9.192;2023-04-01T20:33:06;3.03;;;1.70;;
11539;SDS011;5826;54.756;9.192;2023-04-01T20:36:06;2.90;;;1.90;;
11539;SDS011;5826;54.756;9.192;2023-04-01T20:49:45;2.70;;;1.43;;
11539;SDS011;5826;54.756;9.192;2023-04-01T20:52:39;1.93;;;1.27;;
11539;SDS011;5826;54.756;9.192;2023-04-01T20:55:30;2.47;;;1.40;;
11539;SDS011;5826;54.756;9.192;2023-04-01T21:06:29;2.97;;;1.40;;
11539;SDS011;5826;54.756;9.192;2023-04-01T21:11:56;2.33;;;2.00;;
11539;SDS011;5826;54.756;9.192;2023-04-01T21:14:53;4.30;;;2.00;;
11539;SDS011;5826;54.756;9.192;2023-04-01T21:17:37;4.37;;;2.00;;
11539;SDS011;5826;54.756;9.192;2023-04-01T21:20:36;2.33;;;1.47;;
11539;SDS011;5826;54.756;9.192;2023-04-01T21:23:11;1.70;;;1.30;;
11539;SDS011;5826;54.756;9.192;2023-04-01T21:33:58;1.80;;;1.20;;
11539;SDS011;5826;54.756;9.192;2023-04-01T21:39:23;4.37;;;1.20;;
11539;SDS011;5826;54.756;9.192;2023-04-01T21:44:50;3.37;;;1.00;;
11539;SDS011;5826;54.756;9.192;2023-04-01T21:47:41;3.90;;;0.90;;
11539;SDS011;5826;54.756;9.192;2023-04-01T21:53:03;1.60;;;1.10;;
11539;SDS011;5826;54.756;9.192;2023-04-01T22:07:02;3.10;;;1.20;;
11539;SDS011;5826;54.756;9.192;2023-04-01T22:09:57;2.50;;;1.07;;
11539;SDS011;5826;54.756;9.192;2023-04-01T22:12:54;1.90;;;0.90;;
11539;SDS011;5826;54.756;9.192;2023-04-01T22:15:45;3.60;;;1.10;;
11539;SDS011;5826;54.756;9.192;2023-04-01T22:18:25;2.17;;;1.10;;
11539;SDS011;5826;54.756;9.192;2023-04-01T22:23:45;14.73;;;7.73;;
11539;SDS011;5826;54.756;9.192;2023-04-01T22:26:31;12.03;;;6.57;;
11539;SDS011;5826;54.756;9.192;2023-04-01T22:29:10;9.13;;;5.33;;
11539;SDS011;5826;54.756;9.192;2023-04-01T22:34:36;3.77;;;2.40;;
11539;SDS011;5826;54.756;9.192;2023-04-01T22:37:22;3.67;;;1.90;;
11539;SDS011;5826;54.756;9.192;2023-04-01T22:40:00;2.70;;;1.90;;
11539;SDS011;5826;54.756;9.192;2023-04-01T22:42:52;3.13;;;1.70;;
11539;SDS011;5826;54.756;9.192;2023-04-01T22:48:19;1.87;;;1.30;;
11539;SDS011;5826;54.756;9.192;2023-04-01T22:50:53;2.23;;;1.30;;
11539;SDS011;5826;54.756;9.192;2023-04-01T22:53:37;2.90;;;1.20;;
11539;SDS011;5826;54.756;9.192;2023-04-01T22:56:41;3.33;;;1.30;;
11539;SDS011;5826;54.756;9.192;2023-04-01T22:59:31;1.73;;;1.10;;
11539;SDS011;5826;54.756;9.192;2023-04-01T23:04:55;2.63;;;1.23;;
11539;SDS011;5826;54.756;9.192;2023-04-01T23:10:31;1.93;;;1.10;;
11539;SDS011;5826;54.756;9.192;2023-04-01T23:13:16;2.37;;;1.07;;
11539;SDS011;5826;54.756;9.192;2023-04-01T23:15:47;1.60;;;0.90;;
11539;SDS011;5826;54.756;9.192;2023-04-01T23:18:16;2.07;;;1.10;;
11539;SDS011;5826;54.756;9.192;2023-04-01T23:26:39;2.00;;;1.07;;
11539;SDS011;5826;54.756;9.192;2023-04-01T23:29:12;3.17;;;1.20;;
11539;SDS011;5826;54.756;9.192;2023-04-01T23:31:56;1.87;;;1.30;;
11539;SDS011;5826;54.756;9.192;2023-04-01T23:36:57;2.67;;;1.20;;
11539;SDS011;5826;54.756;9.192;2023-04-01T23:39:35;2.53;;;1.30;;
11539;SDS011;5826;54.756;9.192;2023-04-01T23:44:50;2.23;;;1.20;;
11539;SDS011;5826;54.756;9.192;2023-04-01T23:47:22;1.97;;;1.30;;
11539;SDS011;5826;54.756;9.192;2023-04-01T23:49:52;2.10;;;1.20;;
11539;SDS011;5826;54.756;9.192;2023-04-01T23:52:25;3.17;;;1.60;;
11539;SDS011;5826;54.756;9.192;2023-04-01T23:57:27;3.53;;;1.27;;
11539;SDS011;5826;54.756;9.192;2023-04-01T23:59:59;2.43;;;1.53;;
